Time,TemperatureF,DewpointF,PressureIn,WindDirection,WindDirectionDegrees,WindSpeedMPH,WindSpeedGustMPH,Humidity,HourlyPrecipIn,Conditions,Clouds,dailyrainin,SoftwareType,DateUTC
2013-05-05 00:00:00,49.1,38.2,29.68,North,3,0.2,1.6,66,-99.99,,,-99.99,WSDL version 423,2013-05-05 04:00:00,
2013-05-05 00:05:00,48.8,37.9,29.68,NNE,28,1.2,2.2,65,-99.99,,,-99.99,WSDL version 423,2013-05-05 04:05:00,
2013-05-05 00:10:00,48.7,38.0,29.68,NNE,17,1.5,2.5,67,-99.99,,,-99.99,WSDL version 423,2013-05-05 04:10:00,
2013-05-05 00:15:00,48.6,38.1,29.68,North,3,1.1,2.5,67,-99.99,,,-99.99,WSDL version 423,2013-05-05 04:15:00,
2013-05-05 00:20:00,48.4,38.5,29.68,North,3,1.8,2.7,69,-99.99,,,-99.99,WSDL version 423,2013-05-05 04:20:00,
2013-05-05 00:25:00,48.2,38.3,29.68,North,360,0.4,2.7,68,-99.99,,,-99.99,WSDL version 423,2013-05-05 04:25:00,
2013-05-05 00:30:00,48.1,38.0,29.68,NNE,23,0.0,2.0,68,-99.99,,,-99.99,WSDL version 423,2013-05-05 04:30:00,
2013-05-05 00:35:00,48.0,38.2,29.68,NNE,25,0.0,1.6,69,-99.99,,,-99.99,WSDL version 423,2013-05-05 04:35:00,
2013-05-05 00:40:00,47.8,38.2,29.68,North,8,1.3,2.2,69,-99.99,,,-99.99,WSDL version 423,2013-05-05 04:40:00,
2013-05-05 00:45:00,47.6,37.9,29.65,NNE,23,0.9,2.2,69,-99.99,,,-99.99,WSDL version 423,2013-05-05 04:45:00,
2013-05-05 00:50:00,47.3,37.7,29.65,NE,35,1.1,2.0,69,-99.99,,,-99.99,WSDL version 423,2013-05-05 04:50:00,
2013-05-05 00:55:00,47.2,37.7,29.65,NNE,23,1.3,2.2,70,-99.99,,,-99.99,WSDL version 423,2013-05-05 04:55:00,
2013-05-05 01:00:00,47.1,38.3,29.65,NNE,25,0.9,2.2,72,-99.99,,,-99.99,WSDL version 423,2013-05-05 05:00:00,
2013-05-05 01:05:00,47.0,38.1,29.65,North,10,0.4,2.2,71,-99.99,,,-99.99,WSDL version 423,2013-05-05 05:05:00,
2013-05-05 01:10:00,46.8,37.9,29.65,NNE,28,1.3,1.6,71,-99.99,,,-99.99,WSDL version 423,2013-05-05 05:10:00,
2013-05-05 01:15:00,46.6,38.0,29.68,North,5,2.0,2.7,73,-99.99,,,-99.99,WSDL version 423,2013-05-05 05:15:00,
2013-05-05 01:20:00,46.4,38.5,29.68,NNE,28,0.3,2.7,74,-99.99,,,-99.99,WSDL version 423,2013-05-05 05:20:00,
2013-05-05 01:25:00,46.3,38.4,29.68,NNE,17,1.5,2.7,74,-99.99,,,-99.99,WSDL version 423,2013-05-05 05:25:00,
2013-05-05 01:30:00,46.1,38.6,29.65,North,6,1.5,2.5,75,-99.99,,,-99.99,WSDL version 423,2013-05-05 05:30:00,
2013-05-05 01:35:00,45.9,38.3,29.65,North,3,0.3,2.5,75,-99.99,,,-99.99,WSDL version 423,2013-05-05 05:35:00,
2013-05-05 01:40:00,45.8,38.0,29.65,NNE,28,0.0,1.3,74,-99.99,,,-99.99,WSDL version 423,2013-05-05 05:40:00,
2013-05-05 01:45:00,45.5,37.7,29.65,NE,34,1.0,2.0,74,-99.99,,,-99.99,WSDL version 423,2013-05-05 05:45:00,
2013-05-05 01:50:00,45.4,38.0,29.65,NNE,28,1.3,2.2,76,-99.99,,,-99.99,WSDL version 423,2013-05-05 05:50:00,
2013-05-05 01:55:00,45.2,38.2,29.65,NNE,16,1.7,2.5,77,-99.99,,,-99.99,WSDL version 423,2013-05-05 05:55:00,
2013-05-05 02:00:00,45.0,38.5,29.65,North,8,2.1,2.9,79,-99.99,,,-99.99,WSDL version 423,2013-05-05 06:00:00,
2013-05-05 02:05:00,44.7,38.8,29.65,North,352,2.2,2.9,80,-99.99,,,-99.99,WSDL version 423,2013-05-05 06:05:00,
2013-05-05 02:10:00,44.6,39.3,29.65,North,360,2.5,3.8,82,-99.99,,,-99.99,WSDL version 423,2013-05-05 06:10:00,
2013-05-05 02:15:00,44.5,39.4,29.65,North,10,1.8,3.8,82,-99.99,,,-99.99,WSDL version 423,2013-05-05 06:15:00,
2013-05-05 02:20:00,44.3,39.0,29.65,North,360,2.2,2.7,81,-99.99,,,-99.99,WSDL version 423,2013-05-05 06:20:00,
2013-05-05 02:25:00,44.1,39.2,29.65,North,3,2.4,3.1,83,-99.99,,,-99.99,WSDL version 423,2013-05-05 06:25:00,
2013-05-05 02:30:00,43.8,39.6,29.65,North,360,2.7,3.6,86,-99.99,,,-99.99,WSDL version 423,2013-05-05 06:30:00,
2013-05-05 02:35:00,43.7,39.3,29.65,North,10,2.1,3.6,84,-99.99,,,-99.99,WSDL version 423,2013-05-05 06:35:00,
2013-05-05 02:40:00,43.5,39.1,29.65,NNW,346,1.5,2.9,84,-99.99,,,-99.99,WSDL version 423,2013-05-05 06:40:00,
2013-05-05 02:45:00,43.4,38.9,29.65,North,360,1.0,2.5,84,-99.99,,,-99.99,WSDL version 423,2013-05-05 06:45:00,
2013-05-05 02:50:00,43.2,38.5,29.65,North,360,0.0,2.5,82,-99.99,,,-99.99,WSDL version 423,2013-05-05 06:50:00,
2013-05-05 02:55:00,43.0,38.0,29.65,North,11,0.0,0.0,82,-99.99,,,-99.99,WSDL version 423,2013-05-05 06:55:00,
2013-05-05 03:00:00,42.9,37.8,29.65,NNE,25,0.0,0.0,82,-99.99,,,-99.99,WSDL version 423,2013-05-05 07:00:00,
2013-05-05 03:05:00,42.8,37.5,29.65,East,82,0.0,0.0,82,-99.99,,,-99.99,WSDL version 423,2013-05-05 07:05:00,
2013-05-05 03:10:00,42.7,37.6,29.65,NE,38,0.9,2.2,82,-99.99,,,-99.99,WSDL version 423,2013-05-05 07:10:00,
2013-05-05 03:15:00,42.7,37.7,29.65,NNE,14,0.0,2.2,82,-99.99,,,-99.99,WSDL version 423,2013-05-05 07:15:00,
2013-05-05 03:20:00,42.7,37.9,29.65,NNE,25,0.3,2.2,83,-99.99,,,-99.99,WSDL version 423,2013-05-05 07:20:00,
2013-05-05 03:25:00,42.5,38.0,29.65,NNE,23,1.2,2.5,84,-99.99,,,-99.99,WSDL version 423,2013-05-05 07:25:00,
2013-05-05 03:30:00,42.4,38.2,29.65,North,6,1.4,2.7,86,-99.99,,,-99.99,WSDL version 423,2013-05-05 07:30:00,
2013-05-05 03:35:00,42.2,38.2,29.65,North,8,1.3,2.7,86,-99.99,,,-99.99,WSDL version 423,2013-05-05 07:35:00,
2013-05-05 03:40:00,42.1,38.4,29.65,North,8,1.8,2.5,87,-99.99,,,-99.99,WSDL version 423,2013-05-05 07:40:00,
2013-05-05 03:45:00,41.8,38.2,29.65,NNE,18,1.5,2.5,87,-99.99,,,-99.99,WSDL version 423,2013-05-05 07:45:00,
2013-05-05 03:50:00,41.7,38.3,29.65,North,352,1.5,2.5,88,-99.99,,,-99.99,WSDL version 423,2013-05-05 07:50:00,
2013-05-05 03:55:00,41.6,38.3,29.65,NNE,15,1.5,2.5,88,-99.99,,,-99.99,WSDL version 423,2013-05-05 07:55:00,
2013-05-05 04:00:00,41.5,38.4,29.65,North,353,1.3,2.5,89,-99.99,,,-99.99,WSDL version 423,2013-05-05 08:00:00,
2013-05-05 04:05:00,41.5,38.5,29.65,NNE,23,1.8,2.7,89,-99.99,,,-99.99,WSDL version 423,2013-05-05 08:05:00,
2013-05-05 04:10:00,41.3,38.3,29.65,NNE,13,1.6,2.7,89,-99.99,,,-99.99,WSDL version 423,2013-05-05 08:10:00,
2013-05-05 04:15:00,41.2,38.2,29.65,NNE,14,1.3,2.5,89,-99.99,,,-99.99,WSDL version 423,2013-05-05 08:15:00,
2013-05-05 04:20:00,41.2,38.2,29.65,NNE,25,1.3,2.2,89,-99.99,,,-99.99,WSDL version 423,2013-05-05 08:20:00,
2013-05-05 04:25:00,41.0,38.0,29.65,North,357,1.0,2.2,89,-99.99,,,-99.99,WSDL version 423,2013-05-05 08:25:00,
2013-05-05 04:30:00,41.0,37.9,29.65,NNE,28,0.0,2.2,89,-99.99,,,-99.99,WSDL version 423,2013-05-05 08:30:00,
2013-05-05 04:35:00,40.8,37.8,29.65,NNE,25,0.0,0.0,89,-99.99,,,-99.99,WSDL version 423,2013-05-05 08:35:00,
2013-05-05 04:40:00,40.6,37.6,29.65,ENE,73,0.0,0.0,89,-99.99,,,-99.99,WSDL version 423,2013-05-05 08:40:00,
2013-05-05 04:45:00,40.6,37.6,29.65,NW,315,0.0,0.0,89,-99.99,,,-99.99,WSDL version 423,2013-05-05 08:45:00,
2013-05-05 04:50:00,40.5,37.2,29.65,North,360,0.2,2.5,88,-99.99,,,-99.99,WSDL version 423,2013-05-05 08:50:00,
2013-05-05 04:55:00,40.3,37.0,29.65,North,8,1.6,2.7,89,-99.99,,,-99.99,WSDL version 423,2013-05-05 08:55:00,
2013-05-05 05:00:00,40.1,37.1,29.65,NE,42,0.8,2.7,89,-99.99,,,-99.99,WSDL version 423,2013-05-05 09:00:00,
2013-05-05 05:05:00,39.9,36.9,29.65,ENE,58,0.4,2.0,89,-99.99,,,-99.99,WSDL version 423,2013-05-05 09:05:00,
2013-05-05 05:10:00,39.9,36.9,29.65,North,5,0.9,2.2,89,-99.99,,,-99.99,WSDL version 423,2013-05-05 09:10:00,
2013-05-05 05:15:00,39.9,36.9,29.65,NE,42,1.2,2.2,89,-99.99,,,-99.99,WSDL version 423,2013-05-05 09:15:00,
2013-05-05 05:20:00,39.9,37.3,29.65,North,355,2.1,2.7,91,-99.99,,,-99.99,WSDL version 423,2013-05-05 09:20:00,
2013-05-05 05:25:00,39.9,37.5,29.65,NNE,31,0.7,2.7,91,-99.99,,,-99.99,WSDL version 423,2013-05-05 09:25:00,
2013-05-05 05:30:00,39.9,37.5,29.65,NNW,340,1.3,2.0,91,-99.99,,,-99.99,WSDL version 423,2013-05-05 09:30:00,
2013-05-05 05:35:00,39.8,37.6,29.65,North,357,1.5,2.7,92,-99.99,,,-99.99,WSDL version 423,2013-05-05 09:35:00,
2013-05-05 05:40:00,39.7,37.9,29.65,North,3,1.4,2.7,93,-99.99,,,-99.99,WSDL version 423,2013-05-05 09:40:00,
2013-05-05 05:45:00,39.7,38.0,29.65,North,5,1.4,2.5,93,-99.99,,,-99.99,WSDL version 423,2013-05-05 09:45:00,
2013-05-05 05:50:00,39.7,38.0,29.65,North,8,1.5,2.2,93,-99.99,,,-99.99,WSDL version 423,2013-05-05 09:50:00,
2013-05-05 05:55:00,39.6,38.0,29.65,North,353,2.2,3.1,94,-99.99,,,-99.99,WSDL version 423,2013-05-05 09:55:00,
2013-05-05 06:00:00,39.6,38.3,29.65,North,11,2.3,3.4,96,-99.99,,,-99.99,WSDL version 423,2013-05-05 10:00:00,
2013-05-05 06:05:00,39.6,38.5,29.65,North,355,1.9,3.4,97,-99.99,,,-99.99,WSDL version 423,2013-05-05 10:05:00,
2013-05-05 06:10:00,39.6,38.7,29.65,North,3,2.2,3.6,98,-99.99,,,-99.99,WSDL version 423,2013-05-05 10:10:00,
2013-05-05 06:15:00,39.6,39.0,29.65,North,358,1.8,3.6,98,-99.99,,,-99.99,WSDL version 423,2013-05-05 10:15:00,
2013-05-05 06:20:00,39.7,39.2,29.65,NNE,15,1.5,2.9,98,-99.99,,,-99.99,WSDL version 423,2013-05-05 10:20:00,
2013-05-05 06:25:00,40.0,39.4,29.65,North,354,2.2,2.7,98,-99.99,,,-99.99,WSDL version 423,2013-05-05 10:25:00,
2013-05-05 06:30:00,40.5,40.1,29.65,North,3,1.6,2.7,99,-99.99,,,-99.99,WSDL version 423,2013-05-05 10:30:00,
2013-05-05 06:35:00,41.2,40.9,29.65,North,6,1.7,2.7,99,-99.99,,,-99.99,WSDL version 423,2013-05-05 10:35:00,
2013-05-05 06:40:00,42.5,42.2,29.65,NNE,20,1.3,2.5,99,-99.99,,,-99.99,WSDL version 423,2013-05-05 10:40:00,
2013-05-05 06:45:00,44.0,43.7,29.65,North,8,2.1,2.7,98,-99.99,,,-99.99,WSDL version 423,2013-05-05 10:45:00,
2013-05-05 06:50:00,45.5,44.6,29.65,North,5,1.8,2.7,96,-99.99,,,-99.99,WSDL version 423,2013-05-05 10:50:00,
2013-05-05 06:55:00,46.9,44.5,29.65,NNE,18,1.8,2.5,89,-99.99,,,-99.99,WSDL version 423,2013-05-05 10:55:00,
2013-05-05 07:00:00,48.0,44.0,29.68,North,11,2.2,2.9,83,-99.99,,,-99.99,WSDL version 423,2013-05-05 11:00:00,
2013-05-05 07:05:00,48.7,42.5,29.68,North,5,2.4,3.4,76,-99.99,,,-99.99,WSDL version 423,2013-05-05 11:05:00,
2013-05-05 07:10:00,49.6,41.8,29.68,NNE,23,2.3,3.4,73,-99.99,,,-99.99,WSDL version 423,2013-05-05 11:10:00,
2013-05-05 07:15:00,50.3,41.6,29.68,North,3,2.3,3.6,72,-99.99,,,-99.99,WSDL version 423,2013-05-05 11:15:00,
2013-05-05 07:20:00,51.2,42.1,29.68,North,8,2.3,3.6,69,-99.99,,,-99.99,WSDL version 423,2013-05-05 11:20:00,
2013-05-05 07:25:00,52.0,41.7,29.68,North,5,2.2,3.1,67,-99.99,,,-99.99,WSDL version 423,2013-05-05 11:25:00,
2013-05-05 07:30:00,52.8,41.5,29.65,North,355,2.3,2.9,64,-99.99,,,-99.99,WSDL version 423,2013-05-05 11:30:00,
2013-05-05 07:35:00,53.4,40.4,29.65,North,353,2.4,3.6,60,-99.99,,,-99.99,WSDL version 423,2013-05-05 11:35:00,
2013-05-05 07:40:00,54.2,40.5,29.65,North,8,1.9,3.6,60,-99.99,,,-99.99,WSDL version 423,2013-05-05 11:40:00,
2013-05-05 07:45:00,55.0,40.7,29.65,NNW,346,2.3,3.8,57,-99.99,,,-99.99,WSDL version 423,2013-05-05 11:45:00,
2013-05-05 07:50:00,55.5,39.9,29.65,North,3,2.3,3.8,55,-99.99,,,-99.99,WSDL version 423,2013-05-05 11:50:00,
2013-05-05 07:55:00,56.1,40.3,29.65,North,349,2.0,2.9,55,-99.99,,,-99.99,WSDL version 423,2013-05-05 11:55:00,
2013-05-05 08:00:00,56.4,39.6,29.65,North,8,2.5,3.6,53,-99.99,,,-99.99,WSDL version 423,2013-05-05 12:00:00,
2013-05-05 08:05:00,56.7,39.1,29.65,North,353,2.2,3.6,52,-99.99,,,-99.99,WSDL version 423,2013-05-05 12:05:00,
2013-05-05 08:10:00,57.0,39.1,29.65,North,6,2.5,3.8,50,-99.99,,,-99.99,WSDL version 423,2013-05-05 12:10:00,
2013-05-05 08:15:00,57.2,38.7,29.65,North,5,2.6,3.8,50,-99.99,,,-99.99,WSDL version 423,2013-05-05 12:15:00,
2013-05-05 08:20:00,57.4,39.0,29.65,NNE,20,1.9,3.6,50,-99.99,,,-99.99,WSDL version 423,2013-05-05 12:20:00,
2013-05-05 08:25:00,58.0,39.5,29.65,North,358,2.1,4.0,50,-99.99,,,-99.99,WSDL version 423,2013-05-05 12:25:00,
2013-05-05 08:30:00,59.1,39.9,29.65,NE,42,2.2,4.0,48,-99.99,,,-99.99,WSDL version 423,2013-05-05 12:30:00,
2013-05-05 08:35:00,60.4,40.5,29.65,NNE,28,2.4,3.4,47,-99.99,,,-99.99,WSDL version 423,2013-05-05 12:35:00,
2013-05-05 08:40:00,61.5,40.8,29.65,North,8,2.4,3.6,46,-99.99,,,-99.99,WSDL version 423,2013-05-05 12:40:00,
2013-05-05 08:45:00,62.5,41.0,29.65,NNE,23,2.5,3.6,44,-99.99,,,-99.99,WSDL version 423,2013-05-05 12:45:00,
2013-05-05 08:50:00,63.7,41.1,29.65,NNE,20,2.1,3.1,43,-99.99,,,-99.99,WSDL version 423,2013-05-05 12:50:00,
2013-05-05 08:55:00,65.0,42.0,29.65,NE,34,2.1,3.4,43,-99.99,,,-99.99,WSDL version 423,2013-05-05 12:55:00,
2013-05-05 09:00:00,66.2,42.3,29.65,North,358,1.7,3.4,41,-99.99,,,-99.99,WSDL version 423,2013-05-05 13:00:00,
2013-05-05 09:05:00,67.2,41.6,29.65,NNE,28,1.9,2.7,38,-99.99,,,-99.99,WSDL version 423,2013-05-05 13:05:00,
2013-05-05 09:10:00,68.4,41.8,29.65,NNE,23,1.4,2.7,37,-99.99,,,-99.99,WSDL version 423,2013-05-05 13:10:00,
2013-05-05 09:15:00,69.5,41.6,29.65,North,353,1.8,2.9,35,-99.99,,,-99.99,WSDL version 423,2013-05-05 13:15:00,
2013-05-05 09:20:00,70.3,40.8,29.65,North,11,1.5,2.9,34,-99.99,,,-99.99,WSDL version 423,2013-05-05 13:20:00,
2013-05-05 09:25:00,71.1,40.6,29.65,North,350,2.3,3.1,32,-99.99,,,-99.99,WSDL version 423,2013-05-05 13:25:00,
2013-05-05 09:30:00,71.9,40.5,29.65,NNE,23,2.0,3.4,32,-99.99,,,-99.99,WSDL version 423,2013-05-05 13:30:00,
2013-05-05 09:35:00,73.1,41.4,29.65,NE,40,1.2,3.4,31,-99.99,,,-99.99,WSDL version 423,2013-05-05 13:35:00,
2013-05-05 09:40:00,74.5,42.1,29.65,ESE,113,0.4,2.2,31,-99.99,,,-99.99,WSDL version 423,2013-05-05 13:40:00,
2013-05-05 09:45:00,75.7,42.1,29.65,North,10,0.4,2.7,30,-99.99,,,-99.99,WSDL version 423,2013-05-05 13:45:00,
2013-05-05 09:50:00,77.2,42.3,29.65,WNW,288,0.0,2.7,26,-99.99,,,-99.99,WSDL version 423,2013-05-05 13:50:00,
2013-05-05 09:55:00,78.0,41.7,29.65,WSW,248,0.2,1.6,28,-99.99,,,-99.99,WSDL version 423,2013-05-05 13:55:00,
2013-05-05 10:00:00,79.5,41.9,29.62,SSW,200,0.0,1.6,25,-99.99,,,-99.99,WSDL version 423,2013-05-05 14:00:00,
2013-05-05 10:05:00,80.7,41.3,29.62,NW,312,0.6,1.6,24,-99.99,,,-99.99,WSDL version 423,2013-05-05 14:05:00,
2013-05-05 10:10:00,81.3,39.5,29.62,SSE,153,0.0,2.2,23,-99.99,,,-99.99,WSDL version 423,2013-05-05 14:10:00,
2013-05-05 10:15:00,82.0,39.0,29.62,SSE,160,2.1,3.8,21,-99.99,,,-99.99,WSDL version 423,2013-05-05 14:15:00,
2013-05-05 10:20:00,82.8,38.3,29.62,South,175,1.2,3.8,20,-99.99,,,-99.99,WSDL version 423,2013-05-05 14:20:00,
2013-05-05 10:25:00,83.6,38.8,29.62,South,185,0.4,3.6,20,-99.99,,,-99.99,WSDL version 423,2013-05-05 14:25:00,
2013-05-05 10:30:00,84.1,38.6,29.62,NW,307,0.4,3.6,19,-99.99,,,-99.99,WSDL version 423,2013-05-05 14:30:00,
2013-05-05 10:35:00,85.0,39.2,29.62,SW,220,0.8,2.0,20,-99.99,,,-99.99,WSDL version 423,2013-05-05 14:35:00,
2013-05-05 10:40:00,85.7,39.6,29.62,SSE,166,0.0,2.0,19,-99.99,,,-99.99,WSDL version 423,2013-05-05 14:40:00,
2013-05-05 10:45:00,86.4,39.3,29.62,SW,223,0.2,2.7,19,-99.99,,,-99.99,WSDL version 423,2013-05-05 14:45:00,
2013-05-05 10:50:00,86.2,38.4,29.62,ESE,115,0.6,4.3,19,-99.99,,,-99.99,WSDL version 423,2013-05-05 14:50:00,
2013-05-05 10:55:00,86.0,39.0,29.62,SSW,213,0.4,4.3,19,-99.99,,,-99.99,WSDL version 423,2013-05-05 14:55:00,
2013-05-05 11:00:00,86.3,38.1,29.62,ESE,120,0.5,2.7,18,-99.99,,,-99.99,WSDL version 423,2013-05-05 15:00:00,
2013-05-05 11:05:00,86.0,37.6,29.62,North,3,2.1,3.6,18,-99.99,,,-99.99,WSDL version 423,2013-05-05 15:05:00,
2013-05-05 11:10:00,85.0,36.8,29.62,SSW,193,1.7,3.8,18,-99.99,,,-99.99,WSDL version 423,2013-05-05 15:10:00,
2013-05-05 11:15:00,85.1,36.9,29.62,SSW,197,1.6,4.0,18,-99.99,,,-99.99,WSDL version 423,2013-05-05 15:15:00,
2013-05-05 11:20:00,86.3,38.1,29.62,West,265,0.4,4.0,18,-99.99,,,-99.99,WSDL version 423,2013-05-05 15:20:00,
2013-05-05 11:25:00,87.1,38.5,29.62,SW,228,1.6,3.1,18,-99.99,,,-99.99,WSDL version 423,2013-05-05 15:25:00,
2013-05-05 11:30:00,87.5,38.8,29.62,South,183,1.0,3.1,18,-99.99,,,-99.99,WSDL version 423,2013-05-05 15:30:00,
2013-05-05 11:35:00,88.2,39.4,29.62,WSW,256,0.0,2.5,18,-99.99,,,-99.99,WSDL version 423,2013-05-05 15:35:00,
2013-05-05 11:40:00,88.6,39.7,29.62,SSW,194,1.1,2.5,18,-99.99,,,-99.99,WSDL version 423,2013-05-05 15:40:00,
2013-05-05 11:45:00,88.5,39.6,29.62,SW,225,1.0,4.9,18,-99.99,,,-99.99,WSDL version 423,2013-05-05 15:45:00,
2013-05-05 11:50:00,88.7,39.8,29.62,North,352,0.3,4.9,18,-99.99,,,-99.99,WSDL version 423,2013-05-05 15:50:00,
2013-05-05 11:55:00,88.7,39.8,29.62,South,190,0.5,3.4,18,-99.99,,,-99.99,WSDL version 423,2013-05-05 15:55:00,
2013-05-05 12:00:00,88.7,39.8,29.59,SW,231,0.4,3.4,18,-99.99,,,-99.99,WSDL version 423,2013-05-05 16:00:00,
2013-05-05 12:05:00,88.7,39.8,29.59,East,98,1.5,2.9,18,-99.99,,,-99.99,WSDL version 423,2013-05-05 16:05:00,
2013-05-05 12:10:00,88.0,39.2,29.59,South,180,1.9,3.6,18,-99.99,,,-99.99,WSDL version 423,2013-05-05 16:10:00,
2013-05-05 12:15:00,87.7,39.0,29.59,South,188,1.5,4.7,18,-99.99,,,-99.99,WSDL version 423,2013-05-05 16:15:00,
2013-05-05 12:20:00,88.2,39.4,29.59,South,175,1.8,4.7,18,-99.99,,,-99.99,WSDL version 423,2013-05-05 16:20:00,
2013-05-05 12:25:00,88.6,39.7,29.59,NNW,335,0.4,3.8,18,-99.99,,,-99.99,WSDL version 423,2013-05-05 16:25:00,
2013-05-05 12:30:00,89.5,39.8,29.59,ESE,113,0.0,2.7,17,-99.99,,,-99.99,WSDL version 423,2013-05-05 16:30:00,
2013-05-05 12:35:00,89.7,39.4,29.59,North,357,2.0,3.1,18,-99.99,,,-99.99,WSDL version 423,2013-05-05 16:35:00,
2013-05-05 12:40:00,88.9,40.0,29.59,WSW,248,1.3,4.0,18,-99.99,,,-99.99,WSDL version 423,2013-05-05 16:40:00,
2013-05-05 12:45:00,89.2,39.9,29.59,SW,228,0.0,4.0,17,-99.99,,,-99.99,WSDL version 423,2013-05-05 16:45:00,
2013-05-05 12:50:00,89.9,39.3,29.59,ESE,121,1.1,2.5,17,-99.99,,,-99.99,WSDL version 423,2013-05-05 16:50:00,
2013-05-05 12:55:00,89.7,39.4,29.59,SSW,194,1.9,3.6,18,-99.99,,,-99.99,WSDL version 423,2013-05-05 16:55:00,
2013-05-05 13:00:00,89.2,40.2,29.59,SSE,166,0.8,4.3,18,-99.99,,,-99.99,WSDL version 423,2013-05-05 17:00:00,
2013-05-05 13:05:00,89.3,40.0,29.59,SW,233,0.9,4.3,18,-99.99,,,-99.99,WSDL version 423,2013-05-05 17:05:00,
2013-05-05 13:10:00,89.4,39.5,29.59,ENE,59,0.9,3.4,17,-99.99,,,-99.99,WSDL version 423,2013-05-05 17:10:00,
2013-05-05 13:15:00,89.5,39.7,29.59,NNW,338,2.7,5.6,18,-99.99,,,-99.99,WSDL version 423,2013-05-05 17:15:00,
2013-05-05 13:20:00,89.0,40.1,29.59,SSE,152,0.6,5.6,18,-99.99,,,-99.99,WSDL version 423,2013-05-05 17:20:00,
2013-05-05 13:25:00,89.3,40.3,29.59,SW,222,2.4,5.6,18,-99.99,,,-99.99,WSDL version 423,2013-05-05 17:25:00,
2013-05-05 13:30:00,89.8,39.3,29.59,SW,235,1.6,5.6,17,-99.99,,,-99.99,WSDL version 423,2013-05-05 17:30:00,
2013-05-05 13:35:00,90.0,39.4,29.59,SW,228,2.2,3.8,17,-99.99,,,-99.99,WSDL version 423,2013-05-05 17:35:00,
2013-05-05 13:40:00,89.2,40.0,29.59,West,280,1.3,3.8,18,-99.99,,,-99.99,WSDL version 423,2013-05-05 17:40:00,
2013-05-05 13:45:00,87.9,38.7,29.59,North,357,1.4,8.1,16,-99.99,,,-99.99,WSDL version 423,2013-05-05 17:45:00,
2013-05-05 13:50:00,87.2,37.4,29.59,SSE,163,2.0,8.1,16,-99.99,,,-99.99,WSDL version 423,2013-05-05 17:50:00,
2013-05-05 13:55:00,86.6,36.1,29.59,SSE,168,2.1,4.3,18,-99.99,,,-99.99,WSDL version 423,2013-05-05 17:55:00,
2013-05-05 14:00:00,86.4,37.9,29.56,NE,48,2.7,6.5,18,-99.99,,,-99.99,WSDL version 423,2013-05-05 18:00:00,
2013-05-05 14:05:00,86.4,37.9,29.56,SSW,213,1.7,6.5,18,-99.99,,,-99.99,WSDL version 423,2013-05-05 18:05:00,
2013-05-05 14:10:00,86.9,38.4,29.56,NE,37,2.8,4.0,18,-99.99,,,-99.99,WSDL version 423,2013-05-05 18:10:00,
2013-05-05 14:15:00,86.5,38.0,29.59,ENE,65,1.6,4.3,18,-99.99,,,-99.99,WSDL version 423,2013-05-05 18:15:00,
2013-05-05 14:20:00,86.8,38.3,29.59,NNE,31,1.4,6.0,18,-99.99,,,-99.99,WSDL version 423,2013-05-05 18:20:00,
2013-05-05 14:25:00,87.0,38.4,29.59,NNE,25,2.7,6.0,18,-99.99,,,-99.99,WSDL version 423,2013-05-05 18:25:00,
2013-05-05 14:30:00,85.7,36.9,29.56,SW,225,3.5,7.2,18,-99.99,,,-99.99,WSDL version 423,2013-05-05 18:30:00,
2013-05-05 14:35:00,86.3,37.8,29.56,South,191,2.3,7.2,18,-99.99,,,-99.99,WSDL version 423,2013-05-05 18:35:00,
2013-05-05 14:40:00,86.5,38.0,29.56,SSE,165,1.9,4.9,18,-99.99,,,-99.99,WSDL version 423,2013-05-05 18:40:00,
2013-05-05 14:45:00,86.2,37.3,29.56,West,281,2.6,4.9,18,-99.99,,,-99.99,WSDL version 423,2013-05-05 18:45:00,
2013-05-05 14:50:00,86.1,37.7,29.56,WSW,243,2.1,4.7,18,-99.99,,,-99.99,WSDL version 423,2013-05-05 18:50:00,
2013-05-05 14:55:00,86.2,37.8,29.56,West,278,1.5,4.7,18,-99.99,,,-99.99,WSDL version 423,2013-05-05 18:55:00,
2013-05-05 15:00:00,86.5,38.0,29.56,SW,218,2.3,4.7,18,-99.99,,,-99.99,WSDL version 423,2013-05-05 19:00:00,
2013-05-05 15:10:00,86.6,38.1,29.56,SSE,158,2.2,5.4,18,-99.99,,,-99.99,WSDL version 423,2013-05-05 19:10:00,
2013-05-05 15:15:00,86.7,38.2,29.56,SSW,205,1.3,6.3,18,-99.99,,,-99.99,WSDL version 423,2013-05-05 19:15:00,
2013-05-05 15:20:00,86.8,36.8,29.56,NNE,20,3.0,6.3,16,-99.99,,,-99.99,WSDL version 423,2013-05-05 19:20:00,
2013-05-05 15:25:00,85.7,35.9,29.56,WNW,295,1.1,6.0,18,-99.99,,,-99.99,WSDL version 423,2013-05-05 19:25:00,
2013-05-05 15:30:00,85.4,34.7,29.56,South,172,2.0,4.7,18,-99.99,,,-99.99,WSDL version 423,2013-05-05 19:30:00,
2013-05-05 16:30:00,82.0,32.9,29.56,WSW,256,0.1,2.2,17,-99.99,,,-99.99,WSDL version 423,2013-05-05 20:30:00,
2013-05-05 16:35:00,82.0,32.9,29.56,SW,223,1.5,3.6,17,-99.99,,,-99.99,WSDL version 423,2013-05-05 20:35:00,
2013-05-05 16:40:00,81.9,32.9,29.56,SW,219,0.9,3.6,17,-99.99,,,-99.99,WSDL version 423,2013-05-05 20:40:00,
2013-05-05 16:45:00,81.9,32.8,29.56,SSE,155,1.5,3.1,17,-99.99,,,-99.99,WSDL version 423,2013-05-05 20:45:00,
2013-05-05 16:50:00,81.6,32.6,29.56,WNW,303,0.7,3.4,17,-99.99,,,-99.99,WSDL version 423,2013-05-05 20:50:00,
2013-05-05 16:55:00,81.5,32.5,29.56,SSE,149,1.1,3.4,17,-99.99,,,-99.99,WSDL version 423,2013-05-05 20:55:00,
2013-05-05 17:05:00,81.2,32.3,29.56,SW,219,2.0,4.0,17,-99.99,,,-99.99,WSDL version 423,2013-05-05 21:05:00,
2013-05-05 17:10:00,81.0,32.1,29.56,SSW,200,1.3,4.7,17,-99.99,,,-99.99,WSDL version 423,2013-05-05 21:10:00,
2013-05-05 17:15:00,81.1,32.2,29.56,SSW,198,1.3,4.7,17,-99.99,,,-99.99,WSDL version 423,2013-05-05 21:15:00,
2013-05-05 17:20:00,81.1,32.2,29.56,SE,143,1.8,4.0,17,-99.99,,,-99.99,WSDL version 423,2013-05-05 21:20:00,
2013-05-05 17:25:00,80.7,31.9,29.56,SE,138,1.2,4.0,17,-99.99,,,-99.99,WSDL version 423,2013-05-05 21:25:00,
2013-05-05 17:30:00,81.1,32.2,29.56,South,188,0.7,3.1,17,-99.99,,,-99.99,WSDL version 423,2013-05-05 21:30:00,
2013-05-05 17:35:00,81.7,32.7,29.56,SE,140,1.2,3.6,17,-99.99,,,-99.99,WSDL version 423,2013-05-05 21:35:00,
2013-05-05 17:40:00,81.8,32.8,29.56,South,186,1.6,3.8,17,-99.99,,,-99.99,WSDL version 423,2013-05-05 21:40:00,
2013-05-05 17:45:00,81.5,32.5,29.56,SSE,165,1.1,3.8,17,-99.99,,,-99.99,WSDL version 423,2013-05-05 21:45:00,
2013-05-05 17:50:00,81.4,32.4,29.56,SSE,161,0.1,2.7,17,-99.99,,,-99.99,WSDL version 423,2013-05-05 21:50:00,
2013-05-05 17:55:00,81.3,32.4,29.56,SSW,194,0.6,2.2,17,-99.99,,,-99.99,WSDL version 423,2013-05-05 21:55:00,
2013-05-05 18:00:00,81.2,32.3,29.56,South,183,0.6,2.5,17,-99.99,,,-99.99,WSDL version 423,2013-05-05 22:00:00,
2013-05-05 18:05:00,81.2,32.3,29.56,South,172,1.7,3.1,17,-99.99,,,-99.99,WSDL version 423,2013-05-05 22:05:00,
2013-05-05 18:10:00,80.8,32.0,29.56,SSW,194,1.1,4.7,17,-99.99,,,-99.99,WSDL version 423,2013-05-05 22:10:00,
2013-05-05 18:15:00,80.4,31.7,29.56,SW,214,1.3,4.7,17,-99.99,,,-99.99,WSDL version 423,2013-05-05 22:15:00,
2013-05-05 18:20:00,80.4,31.6,29.56,WNW,289,1.8,3.8,17,-99.99,,,-99.99,WSDL version 423,2013-05-05 22:20:00,
2013-05-05 18:25:00,80.2,31.5,29.56,SSW,203,0.0,3.6,17,-99.99,,,-99.99,WSDL version 423,2013-05-05 22:25:00,
2013-05-05 18:30:00,80.2,31.5,29.56,South,190,1.0,2.2,17,-99.99,,,-99.99,WSDL version 423,2013-05-05 22:30:00,
2013-05-05 18:35:00,80.0,31.3,29.56,South,175,0.9,2.5,17,-99.99,,,-99.99,WSDL version 423,2013-05-05 22:35:00,
2013-05-05 18:40:00,79.6,31.0,29.56,South,174,1.3,4.7,17,-99.99,,,-99.99,WSDL version 423,2013-05-05 22:40:00,
2013-05-05 18:45:00,79.2,30.7,29.56,SSW,208,1.3,4.7,17,-99.99,,,-99.99,WSDL version 423,2013-05-05 22:45:00,
2013-05-05 18:50:00,78.9,30.4,29.56,SSW,205,0.1,3.8,17,-99.99,,,-99.99,WSDL version 423,2013-05-05 22:50:00,
2013-05-05 18:55:00,78.7,31.2,29.56,SW,228,0.3,3.4,18,-99.99,,,-99.99,WSDL version 423,2013-05-05 22:55:00,
2013-05-05 19:00:00,78.4,31.4,29.56,SSW,203,0.3,1.6,18,-99.99,,,-99.99,WSDL version 423,2013-05-05 23:00:00,
2013-05-05 19:05:00,77.9,31.1,29.56,West,270,2.2,7.6,18,-99.99,,,-99.99,WSDL version 423,2013-05-05 23:05:00,
2013-05-05 19:10:00,77.5,30.7,29.56,SW,215,0.2,7.6,18,-99.99,,,-99.99,WSDL version 423,2013-05-05 23:10:00,
2013-05-05 19:15:00,77.2,30.4,29.56,West,259,0.0,2.0,18,-99.99,,,-99.99,WSDL version 423,2013-05-05 23:15:00,
2013-05-05 19:20:00,76.8,30.1,29.56,South,172,0.4,2.2,18,-99.99,,,-99.99,WSDL version 423,2013-05-05 23:20:00,
2013-05-05 19:25:00,76.3,29.7,29.56,South,188,0.0,2.2,18,-99.99,,,-99.99,WSDL version 423,2013-05-05 23:25:00,
2013-05-05 19:30:00,75.8,29.3,29.56,SSE,165,1.3,4.3,18,-99.99,,,-99.99,WSDL version 423,2013-05-05 23:30:00,
2013-05-05 19:35:00,75.3,28.9,29.56,SSW,205,0.3,4.3,18,-99.99,,,-99.99,WSDL version 423,2013-05-05 23:35:00,
2013-05-05 19:40:00,74.7,28.4,29.56,South,188,1.0,3.6,18,-99.99,,,-99.99,WSDL version 423,2013-05-05 23:40:00,
2013-05-05 19:45:00,74.0,27.9,29.56,SSE,168,0.0,3.6,18,-99.99,,,-99.99,WSDL version 423,2013-05-05 23:45:00,
2013-05-05 19:50:00,73.3,27.9,29.56,WSW,248,0.0,2.2,19,-99.99,,,-99.99,WSDL version 423,2013-05-05 23:50:00,
2013-05-05 19:55:00,72.4,27.9,29.56,SSW,210,0.0,0.0,19,-99.99,,,-99.99,WSDL version 423,2013-05-05 23:55:00,
2013-05-05 20:00:00,71.7,27.3,29.56,ESE,121,0.0,0.0,19,-99.99,,,-99.99,WSDL version 423,2013-05-06 00:00:00,
2013-05-05 20:05:00,71.2,26.8,29.56,ESE,120,0.0,0.0,19,-99.99,,,-99.99,WSDL version 423,2013-05-06 00:05:00,
2013-05-05 20:10:00,70.6,27.5,29.56,ESE,113,0.0,0.0,22,-99.99,,,-99.99,WSDL version 423,2013-05-06 00:10:00,
2013-05-05 20:15:00,70.0,29.4,29.56,East,93,0.0,0.0,22,-99.99,,,-99.99,WSDL version 423,2013-05-06 00:15:00,
2013-05-05 20:20:00,69.5,29.0,29.56,East,90,0.0,0.0,22,-99.99,,,-99.99,WSDL version 423,2013-05-06 00:20:00,
2013-05-05 20:25:00,69.1,28.7,29.56,East,90,0.0,0.0,22,-99.99,,,-99.99,WSDL version 423,2013-05-06 00:25:00,
2013-05-05 20:30:00,68.7,28.3,29.56,East,90,0.0,0.0,22,-99.99,,,-99.99,WSDL version 423,2013-05-06 00:30:00,
2013-05-05 20:35:00,68.2,27.9,29.56,East,90,0.0,0.0,22,-99.99,,,-99.99,WSDL version 423,2013-05-06 00:35:00,
2013-05-05 20:40:00,67.4,27.7,29.56,East,90,0.0,0.0,23,-99.99,,,-99.99,WSDL version 423,2013-05-06 00:40:00,
2013-05-05 20:45:00,66.8,27.8,29.56,East,90,0.0,0.0,23,-99.99,,,-99.99,WSDL version 423,2013-05-06 00:45:00,
2013-05-05 20:50:00,66.2,27.3,29.56,East,90,0.0,0.0,23,-99.99,,,-99.99,WSDL version 423,2013-05-06 00:50:00,
2013-05-05 20:55:00,65.7,27.8,29.56,East,90,0.0,0.0,24,-99.99,,,-99.99,WSDL version 423,2013-05-06 00:55:00,
2013-05-05 21:05:00,64.5,27.8,29.56,NE,45,0.0,0.0,25,-99.99,,,-99.99,WSDL version 423,2013-05-06 01:05:00,
2013-05-05 21:10:00,64.0,28.4,29.56,North,360,0.0,0.0,27,-99.99,,,-99.99,WSDL version 423,2013-05-06 01:10:00,
2013-05-05 21:15:00,63.6,29.4,29.56,North,360,0.0,0.0,28,-99.99,,,-99.99,WSDL version 423,2013-05-06 01:15:00,
2013-05-05 21:20:00,63.1,30.2,29.56,SSE,152,0.0,0.0,29,-99.99,,,-99.99,WSDL version 423,2013-05-06 01:20:00,
2013-05-05 21:25:00,62.6,30.5,29.59,East,85,0.0,0.0,29,-99.99,,,-99.99,WSDL version 423,2013-05-06 01:25:00,
2013-05-05 21:30:00,62.0,30.3,29.59,NNE,30,0.0,0.0,31,-99.99,,,-99.99,WSDL version 423,2013-05-06 01:30:00,
2013-05-05 21:35:00,61.5,32.0,29.59,NNE,23,0.0,0.0,34,-99.99,,,-99.99,WSDL version 423,2013-05-06 01:35:00,
2013-05-05 21:40:00,61.2,32.6,29.59,NNE,23,0.0,0.0,34,-99.99,,,-99.99,WSDL version 423,2013-05-06 01:40:00,
2013-05-05 21:45:00,60.7,32.1,29.59,NNE,23,0.0,0.0,34,-99.99,,,-99.99,WSDL version 423,2013-05-06 01:45:00,
2013-05-05 21:50:00,60.3,32.5,29.59,NE,35,0.3,1.6,35,-99.99,,,-99.99,WSDL version 423,2013-05-06 01:50:00,
2013-05-05 21:55:00,60.0,32.5,29.59,NE,45,0.0,1.6,35,-99.99,,,-99.99,WSDL version 423,2013-05-06 01:55:00,
2013-05-05 22:00:00,59.8,32.4,29.59,NNE,23,0.0,0.0,36,-99.99,,,-99.99,WSDL version 423,2013-05-06 02:00:00,
2013-05-05 22:05:00,59.4,33.2,29.59,North,8,0.0,1.6,37,-99.99,,,-99.99,WSDL version 423,2013-05-06 02:05:00,
2013-05-05 22:15:00,58.7,34.7,29.59,North,3,1.3,2.5,42,-99.99,,,-99.99,WSDL version 423,2013-05-06 02:15:00,
2013-05-05 22:20:00,58.1,35.9,29.59,North,6,1.0,3.1,43,-99.99,,,-99.99,WSDL version 423,2013-05-06 02:20:00,
2013-05-05 22:25:00,57.8,36.4,29.59,NNE,23,1.7,3.1,45,-99.99,,,-99.99,WSDL version 423,2013-05-06 02:25:00,
2013-05-05 22:30:00,57.5,36.1,29.59,North,3,1.8,2.7,46,-99.99,,,-99.99,WSDL version 423,2013-05-06 02:30:00,
2013-05-05 22:35:00,57.0,36.2,29.59,North,8,1.3,2.5,46,-99.99,,,-99.99,WSDL version 423,2013-05-06 02:35:00,
2013-05-05 22:40:00,56.7,36.2,29.59,North,10,1.3,2.2,46,-99.99,,,-99.99,WSDL version 423,2013-05-06 02:40:00,
2013-05-05 22:45:00,56.6,36.9,29.59,NNE,15,1.5,2.2,48,-99.99,,,-99.99,WSDL version 423,2013-05-06 02:45:00,
2013-05-05 22:50:00,56.4,37.0,29.59,NNE,17,1.5,2.5,48,-99.99,,,-99.99,WSDL version 423,2013-05-06 02:50:00,
2013-05-05 22:55:00,56.1,36.7,29.56,NNE,20,0.3,2.5,48,-99.99,,,-99.99,WSDL version 423,2013-05-06 02:55:00,
2013-05-05 23:05:00,55.6,37.2,29.56,North,357,1.4,2.5,50,-99.99,,,-99.99,WSDL version 423,2013-05-06 03:05:00,
2013-05-05 23:10:00,55.2,37.2,29.59,North,6,1.2,2.7,51,-99.99,,,-99.99,WSDL version 423,2013-05-06 03:10:00,
2013-05-05 23:15:00,54.9,37.1,29.59,NNE,20,0.2,2.7,51,-99.99,,,-99.99,WSDL version 423,2013-05-06 03:15:00,
2013-05-05 23:20:00,54.6,37.0,29.59,North,3,1.3,2.2,52,-99.99,,,-99.99,WSDL version 423,2013-05-06 03:20:00,
2013-05-05 23:25:00,54.2,37.3,29.56,North,360,1.9,2.7,53,-99.99,,,-99.99,WSDL version 423,2013-05-06 03:25:00,
2013-05-05 23:30:00,53.9,38.0,29.56,North,360,2.0,2.7,56,-99.99,,,-99.99,WSDL version 423,2013-05-06 03:30:00,
2013-05-05 23:35:00,53.5,37.9,29.56,NE,38,1.2,2.7,55,-99.99,,,-99.99,WSDL version 423,2013-05-06 03:35:00,
2013-05-05 23:40:00,53.3,38.3,29.59,North,5,1.9,2.5,57,-99.99,,,-99.99,WSDL version 423,2013-05-06 03:40:00,
2013-05-05 23:45:00,53.1,38.0,29.59,North,357,1.2,2.5,56,-99.99,,,-99.99,WSDL version 423,2013-05-06 03:45:00,
2013-05-05 23:50:00,52.9,38.5,29.59,North,358,1.8,2.5,59,-99.99,,,-99.99,WSDL version 423,2013-05-06 03:50:00,
2013-05-05 23:55:00,52.7,38.9,29.56,North,6,2.0,2.5,60,-99.99,,,-99.99,WSDL version 423,2013-05-06 03:55:00,